sensor_id;sensor_type;location;lat;lon;timestamp;temperature;humidity
26254;DHT22;53339;51.378;0.094;2022-07-23T00:00:31;18.00;70.40
26254;DHT22;53339;51.378;0.094;2022-07-23T00:03:05;18.10;70.30
26254;DHT22;53339;51.378;0.094;2022-07-23T00:05:33;18.10;70.20
26254;DHT22;53339;51.378;0.094;2022-07-23T00:08:01;18.10;70.30
26254;DHT22;53339;51.378;0.094;2022-07-23T00:10:29;18.20;70.30
26254;DHT22;53339;51.378;0.094;2022-07-23T00:12:56;18.20;70.20
26254;DHT22;53339;51.378;0.094;2022-07-23T00:15:24;18.20;70.20
26254;DHT22;53339;51.378;0.094;2022-07-23T00:17:51;18.20;70.20
26254;DHT22;53339;51.378;0.094;2022-07-23T00:20:19;18.20;70.20
26254;DHT22;53339;51.378;0.094;2022-07-23T00:22:52;18.20;70.30
26254;DHT22;53339;51.378;0.094;2022-07-23T00:25:21;18.20;70.30
26254;DHT22;53339;51.378;0.094;2022-07-23T00:27:55;18.20;70.30
26254;DHT22;53339;51.378;0.094;2022-07-23T00:30:23;18.20;70.30
26254;DHT22;53339;51.378;0.094;2022-07-23T00:32:56;18.20;70.30
26254;DHT22;53339;51.378;0.094;2022-07-23T00:35:26;18.20;70.40
26254;DHT22;53339;51.378;0.094;2022-07-23T00:37:56;18.20;70.40
26254;DHT22;53339;51.378;0.094;2022-07-23T00:40:24;18.10;70.50
26254;DHT22;53339;51.378;0.094;2022-07-23T00:42:52;18.10;70.50
26254;DHT22;53339;51.378;0.094;2022-07-23T00:45:20;18.10;70.50
26254;DHT22;53339;51.378;0.094;2022-07-23T00:47:49;18.10;70.60
26254;DHT22;53339;51.378;0.094;2022-07-23T00:50:16;18.00;70.60
26254;DHT22;53339;51.378;0.094;2022-07-23T00:52:44;17.90;70.80
26254;DHT22;53339;51.378;0.094;2022-07-23T00:55:13;17.90;70.90
26254;DHT22;53339;51.378;0.094;2022-07-23T00:57:42;17.80;71.10
26254;DHT22;53339;51.378;0.094;2022-07-23T01:00:12;17.80;71.20
26254;DHT22;53339;51.378;0.094;2022-07-23T01:02:41;17.80;71.40
26254;DHT22;53339;51.378;0.094;2022-07-23T01:05:09;17.70;71.40
26254;DHT22;53339;51.378;0.094;2022-07-23T01:07:37;17.80;71.40
26254;DHT22;53339;51.378;0.094;2022-07-23T01:10:06;17.80;71.40
26254;DHT22;53339;51.378;0.094;2022-07-23T01:12:54;17.80;71.40
26254;DHT22;53339;51.378;0.094;2022-07-23T01:15:21;17.80;71.40
26254;DHT22;53339;51.378;0.094;2022-07-23T01:17:50;17.80;71.40
26254;DHT22;53339;51.378;0.094;2022-07-23T01:20:18;17.90;71.50
26254;DHT22;53339;51.378;0.094;2022-07-23T01:22:46;17.90;71.40
26254;DHT22;53339;51.378;0.094;2022-07-23T01:25:14;17.90;71.40
26254;DHT22;53339;51.378;0.094;2022-07-23T01:27:52;17.90;71.40
26254;DHT22;53339;51.378;0.094;2022-07-23T01:30:20;17.80;71.40
26254;DHT22;53339;51.378;0.094;2022-07-23T01:32:47;17.80;71.40
26254;DHT22;53339;51.378;0.094;2022-07-23T01:35:15;17.80;71.20
26254;DHT22;53339;51.378;0.094;2022-07-23T01:37:43;17.80;71.30
26254;DHT22;53339;51.378;0.094;2022-07-23T01:40:12;17.80;71.40
26254;DHT22;53339;51.378;0.094;2022-07-23T01:42:40;17.80;71.40
26254;DHT22;53339;51.378;0.094;2022-07-23T01:45:09;17.80;71.40
26254;DHT22;53339;51.378;0.094;2022-07-23T01:47:41;17.80;71.40
26254;DHT22;53339;51.378;0.094;2022-07-23T01:50:08;17.70;71.50
26254;DHT22;53339;51.378;0.094;2022-07-23T01:52:46;17.70;71.60
26254;DHT22;53339;51.378;0.094;2022-07-23T01:55:13;17.70;71.60
26254;DHT22;53339;51.378;0.094;2022-07-23T01:57:46;17.70;71.70
26254;DHT22;53339;51.378;0.094;2022-07-23T02:00:15;17.70;71.70
26254;DHT22;53339;51.378;0.094;2022-07-23T02:02:47;17.70;71.70
26254;DHT22;53339;51.378;0.094;2022-07-23T02:05:15;17.80;71.80
26254;DHT22;53339;51.378;0.094;2022-07-23T02:07:45;17.80;71.80
26254;DHT22;53339;51.378;0.094;2022-07-23T02:10:12;17.80;71.80
26254;DHT22;53339;51.378;0.094;2022-07-23T02:12:40;17.80;71.90
26254;DHT22;53339;51.378;0.094;2022-07-23T02:15:09;17.90;71.80
26254;DHT22;53339;51.378;0.094;2022-07-23T02:17:40;17.90;71.80
26254;DHT22;53339;51.378;0.094;2022-07-23T02:20:09;17.90;71.80
26254;DHT22;53339;51.378;0.094;2022-07-23T02:22:37;17.90;71.80
26254;DHT22;53339;51.378;0.094;2022-07-23T02:25:05;17.80;71.90
26254;DHT22;53339;51.378;0.094;2022-07-23T02:27:34;17.80;71.70
26254;DHT22;53339;51.378;0.094;2022-07-23T02:30:05;17.80;71.80
26254;DHT22;53339;51.378;0.094;2022-07-23T02:32:34;17.70;71.90
26254;DHT22;53339;51.378;0.094;2022-07-23T02:35:03;17.70;71.90
26254;DHT22;53339;51.378;0.094;2022-07-23T02:37:32;17.70;72.00
26254;DHT22;53339;51.378;0.094;2022-07-23T02:39:59;17.70;72.20
26254;DHT22;53339;51.378;0.094;2022-07-23T02:42:27;17.70;72.10
26254;DHT22;53339;51.378;0.094;2022-07-23T02:44:55;17.80;72.10
26254;DHT22;53339;51.378;0.094;2022-07-23T02:47:22;17.80;72.20
26254;DHT22;53339;51.378;0.094;2022-07-23T02:49:50;17.80;72.20
26254;DHT22;53339;51.378;0.094;2022-07-23T02:52:18;17.80;72.20
26254;DHT22;53339;51.378;0.094;2022-07-23T02:54:46;17.70;72.10
26254;DHT22;53339;51.378;0.094;2022-07-23T02:57:16;17.70;72.10
26254;DHT22;53339;51.378;0.094;2022-07-23T02:59:44;17.70;72.20
26254;DHT22;53339;51.378;0.094;2022-07-23T03:02:11;17.70;72.30
26254;DHT22;53339;51.378;0.094;2022-07-23T03:04:39;17.60;72.60
26254;DHT22;53339;51.378;0.094;2022-07-23T03:07:11;17.50;72.60
26254;DHT22;53339;51.378;0.094;2022-07-23T03:09:39;17.50;72.70
26254;DHT22;53339;51.378;0.094;2022-07-23T03:12:08;17.40;72.80
26254;DHT22;53339;51.378;0.094;2022-07-23T03:14:41;17.40;72.90
26254;DHT22;53339;51.378;0.094;2022-07-23T03:17:09;17.30;73.00
26254;DHT22;53339;51.378;0.094;2022-07-23T03:19:37;17.20;73.10
26254;DHT22;53339;51.378;0.094;2022-07-23T03:22:07;17.20;73.10
26254;DHT22;53339;51.378;0.094;2022-07-23T03:24:35;17.10;73.20
26254;DHT22;53339;51.378;0.094;2022-07-23T03:27:26;17.10;73.30
26254;DHT22;53339;51.378;0.094;2022-07-23T03:29:57;17.00;73.40
26254;DHT22;53339;51.378;0.094;2022-07-23T03:32:25;16.90;73.50
26254;DHT22;53339;51.378;0.094;2022-07-23T03:34:53;16.90;73.60
26254;DHT22;53339;51.378;0.094;2022-07-23T03:37:21;16.80;73.70
26254;DHT22;53339;51.378;0.094;2022-07-23T03:39:48;16.80;73.90
26254;DHT22;53339;51.378;0.094;2022-07-23T03:42:16;16.70;74.00
26254;DHT22;53339;51.378;0.094;2022-07-23T03:44:46;16.70;74.30
26254;DHT22;53339;51.378;0.094;2022-07-23T03:47:13;16.70;74.50
26254;DHT22;53339;51.378;0.094;2022-07-23T03:49:41;16.70;74.60
26254;DHT22;53339;51.378;0.094;2022-07-23T03:52:09;16.70;74.70
26254;DHT22;53339;51.378;0.094;2022-07-23T03:54:36;16.70;74.70
26254;DHT22;53339;51.378;0.094;2022-07-23T03:57:04;16.70;74.90
26254;DHT22;53339;51.378;0.094;2022-07-23T03:59:31;16.70;74.80
26254;DHT22;53339;51.378;0.094;2022-07-23T04:01:59;16.70;74.80
26254;DHT22;53339;51.378;0.094;2022-07-23T04:04:26;16.70;75.00
26254;DHT22;53339;51.378;0.094;2022-07-23T04:06:55;16.70;75.00
26254;DHT22;53339;51.378;0.094;2022-07-23T04:09:23;16.70;75.00
26254;DHT22;53339;51.378;0.094;2022-07-23T04:11:50;16.70;75.10
26254;DHT22;53339;51.378;0.094;2022-07-23T04:14:19;16.80;75.10
26254;DHT22;53339;51.378;0.094;2022-07-23T04:16:47;16.90;75.00
26254;DHT22;53339;51.378;0.094;2022-07-23T04:19:14;16.90;75.00
26254;DHT22;53339;51.378;0.094;2022-07-23T04:22:09;16.90;74.90
26254;DHT22;53339;51.378;0.094;2022-07-23T04:24:37;17.00;74.90
26254;DHT22;53339;51.378;0.094;2022-07-23T04:27:05;17.00;74.90
26254;DHT22;53339;51.378;0.094;2022-07-23T04:29:33;17.00;75.00
26254;DHT22;53339;51.378;0.094;2022-07-23T04:32:01;17.00;75.00
26254;DHT22;53339;51.378;0.094;2022-07-23T04:34:29;16.90;75.10
26254;DHT22;53339;51.378;0.094;2022-07-23T04:36:58;17.00;75.20
26254;DHT22;53339;51.378;0.094;2022-07-23T04:39:28;17.00;75.30
26254;DHT22;53339;51.378;0.094;2022-07-23T04:41:56;17.00;75.30
26254;DHT22;53339;51.378;0.094;2022-07-23T04:44:23;17.00;75.30
26254;DHT22;53339;51.378;0.094;2022-07-23T04:46:51;17.00;75.30
26254;DHT22;53339;51.378;0.094;2022-07-23T04:49:19;17.00;75.20
26254;DHT22;53339;51.378;0.094;2022-07-23T04:51:47;17.00;75.20
26254;DHT22;53339;51.378;0.094;2022-07-23T04:54:15;17.00;75.20
26254;DHT22;53339;51.378;0.094;2022-07-23T04:56:43;17.00;75.40
26254;DHT22;53339;51.378;0.094;2022-07-23T04:59:11;16.90;75.50
26254;DHT22;53339;51.378;0.094;2022-07-23T05:01:40;16.90;75.70
26254;DHT22;53339;51.378;0.094;2022-07-23T05:04:10;16.80;75.90
26254;DHT22;53339;51.378;0.094;2022-07-23T05:06:39;16.80;76.30
26254;DHT22;53339;51.378;0.094;2022-07-23T05:09:07;16.70;76.40
26254;DHT22;53339;51.378;0.094;2022-07-23T05:11:34;16.70;76.70
26254;DHT22;53339;51.378;0.094;2022-07-23T05:14:02;16.70;76.70
26254;DHT22;53339;51.378;0.094;2022-07-23T05:16:29;16.70;76.70
26254;DHT22;53339;51.378;0.094;2022-07-23T05:19:02;16.70;76.60
26254;DHT22;53339;51.378;0.094;2022-07-23T05:21:32;16.80;76.60
26254;DHT22;53339;51.378;0.094;2022-07-23T05:24:00;16.80;76.70
26254;DHT22;53339;51.378;0.094;2022-07-23T05:26:27;16.90;76.70
26254;DHT22;53339;51.378;0.094;2022-07-23T05:28:55;16.90;76.70
26254;DHT22;53339;51.378;0.094;2022-07-23T05:31:23;16.90;76.90
26254;DHT22;53339;51.378;0.094;2022-07-23T05:33:51;16.90;77.00
26254;DHT22;53339;51.378;0.094;2022-07-23T05:36:19;17.00;77.10
26254;DHT22;53339;51.378;0.094;2022-07-23T05:38:52;17.10;77.30
26254;DHT22;53339;51.378;0.094;2022-07-23T05:41:22;17.20;77.40
26254;DHT22;53339;51.378;0.094;2022-07-23T05:43:50;17.20;77.40
26254;DHT22;53339;51.378;0.094;2022-07-23T05:46:18;17.30;77.30
26254;DHT22;53339;51.378;0.094;2022-07-23T05:48:51;17.40;77.20
26254;DHT22;53339;51.378;0.094;2022-07-23T05:51:37;17.50;77.30
26254;DHT22;53339;51.378;0.094;2022-07-23T05:54:06;17.60;77.20
26254;DHT22;53339;51.378;0.094;2022-07-23T05:56:37;17.60;77.00
26254;DHT22;53339;51.378;0.094;2022-07-23T05:59:05;17.70;76.90
26254;DHT22;53339;51.378;0.094;2022-07-23T06:01:34;17.70;76.70
26254;DHT22;53339;51.378;0.094;2022-07-23T06:04:07;17.80;76.60
26254;DHT22;53339;51.378;0.094;2022-07-23T06:06:38;17.80;76.60
26254;DHT22;53339;51.378;0.094;2022-07-23T06:09:07;17.90;76.50
26254;DHT22;53339;51.378;0.094;2022-07-23T06:11:35;17.90;76.50
26254;DHT22;53339;51.378;0.094;2022-07-23T06:14:04;18.00;76.50
26254;DHT22;53339;51.378;0.094;2022-07-23T06:16:51;18.10;76.40
26254;DHT22;53339;51.378;0.094;2022-07-23T06:19:19;18.20;76.20
26254;DHT22;53339;51.378;0.094;2022-07-23T06:21:46;18.20;75.90
26254;DHT22;53339;51.378;0.094;2022-07-23T06:24:16;18.20;75.50
26254;DHT22;53339;51.378;0.094;2022-07-23T06:26:44;18.30;75.20
26254;DHT22;53339;51.378;0.094;2022-07-23T06:29:12;18.40;75.00
26254;DHT22;53339;51.378;0.094;2022-07-23T06:31:39;18.40;74.80
26254;DHT22;53339;51.378;0.094;2022-07-23T06:34:07;18.40;74.70
26254;DHT22;53339;51.378;0.094;2022-07-23T06:36:36;18.50;74.60
26254;DHT22;53339;51.378;0.094;2022-07-23T06:39:05;18.60;74.20
26254;DHT22;53339;51.378;0.094;2022-07-23T06:41:33;18.60;73.60
26254;DHT22;53339;51.378;0.094;2022-07-23T06:44:01;18.70;73.10
26254;DHT22;53339;51.378;0.094;2022-07-23T06:46:31;18.70;72.90
26254;DHT22;53339;51.378;0.094;2022-07-23T06:49:01;18.80;72.30
26254;DHT22;53339;51.378;0.094;2022-07-23T06:51:29;18.90;72.40
26254;DHT22;53339;51.378;0.094;2022-07-23T06:53:57;18.90;72.20
26254;DHT22;53339;51.378;0.094;2022-07-23T06:56:27;19.00;71.90
26254;DHT22;53339;51.378;0.094;2022-07-23T06:58:55;19.10;71.60
26254;DHT22;53339;51.378;0.094;2022-07-23T07:01:22;19.20;71.30
26254;DHT22;53339;51.378;0.094;2022-07-23T07:03:50;19.20;70.80
26254;DHT22;53339;51.378;0.094;2022-07-23T07:06:18;19.30;70.80
26254;DHT22;53339;51.378;0.094;2022-07-23T07:08:46;19.40;70.40
26254;DHT22;53339;51.378;0.094;2022-07-23T07:11:14;19.50;70.30
26254;DHT22;53339;51.378;0.094;2022-07-23T07:13:41;19.60;69.80
26254;DHT22;53339;51.378;0.094;2022-07-23T07:16:09;19.60;69.20
26254;DHT22;53339;51.378;0.094;2022-07-23T07:18:37;19.70;69.00
26254;DHT22;53339;51.378;0.094;2022-07-23T07:21:04;19.70;68.80
26254;DHT22;53339;51.378;0.094;2022-07-23T07:23:32;19.70;69.00
26254;DHT22;53339;51.378;0.094;2022-07-23T07:26:00;19.80;68.80
26254;DHT22;53339;51.378;0.094;2022-07-23T07:28:27;19.80;68.90
26254;DHT22;53339;51.378;0.094;2022-07-23T07:30:55;19.90;68.90
26254;DHT22;53339;51.378;0.094;2022-07-23T07:33:23;20.00;68.70
26254;DHT22;53339;51.378;0.094;2022-07-23T07:35:50;20.10;67.60
26254;DHT22;53339;51.378;0.094;2022-07-23T07:38:18;20.10;67.10
26254;DHT22;53339;51.378;0.094;2022-07-23T07:40:45;20.20;67.50
26254;DHT22;53339;51.378;0.094;2022-07-23T07:43:13;20.20;67.60
26254;DHT22;53339;51.378;0.094;2022-07-23T07:45:41;20.30;67.40
26254;DHT22;53339;51.378;0.094;2022-07-23T07:48:09;20.40;66.60
26254;DHT22;53339;51.378;0.094;2022-07-23T07:50:36;20.40;66.20
26254;DHT22;53339;51.378;0.094;2022-07-23T07:53:04;20.50;65.00
26254;DHT22;53339;51.378;0.094;2022-07-23T07:55:32;20.60;63.70
26254;DHT22;53339;51.378;0.094;2022-07-23T07:57:59;20.60;63.80
26254;DHT22;53339;51.378;0.094;2022-07-23T08:00:29;20.70;63.10
26254;DHT22;53339;51.378;0.094;2022-07-23T08:02:56;20.70;63.30
26254;DHT22;53339;51.378;0.094;2022-07-23T08:05:28;20.80;62.90
26254;DHT22;53339;51.378;0.094;2022-07-23T08:07:57;20.90;61.80
26254;DHT22;53339;51.378;0.094;2022-07-23T08:10:26;20.90;60.80
26254;DHT22;53339;51.378;0.094;2022-07-23T08:12:55;21.00;58.90
26254;DHT22;53339;51.378;0.094;2022-07-23T08:15:28;21.10;57.50
26254;DHT22;53339;51.378;0.094;2022-07-23T08:17:55;21.10;58.00
26254;DHT22;53339;51.378;0.094;2022-07-23T08:20:24;21.10;57.80
26254;DHT22;53339;51.378;0.094;2022-07-23T08:27:51;21.20;56.80
26254;DHT22;53339;51.378;0.094;2022-07-23T08:30:20;21.30;57.10
26254;DHT22;53339;51.378;0.094;2022-07-23T08:32:59;21.30;56.60
26254;DHT22;53339;51.378;0.094;2022-07-23T08:35:30;21.40;57.30
26254;DHT22;53339;51.378;0.094;2022-07-23T08:37:59;21.40;56.70
26254;DHT22;53339;51.378;0.094;2022-07-23T08:40:28;21.50;55.90
26254;DHT22;53339;51.378;0.094;2022-07-23T08:42:55;21.50;55.30
26254;DHT22;53339;51.378;0.094;2022-07-23T08:45:25;21.50;55.60
26254;DHT22;53339;51.378;0.094;2022-07-23T08:47:57;21.60;55.50
26254;DHT22;53339;51.378;0.094;2022-07-23T08:50:29;21.60;54.30
26254;DHT22;53339;51.378;0.094;2022-07-23T08:52:58;21.60;54.00
26254;DHT22;53339;51.378;0.094;2022-07-23T08:55:26;21.60;53.80
26254;DHT22;53339;51.378;0.094;2022-07-23T08:57:54;21.70;54.10
26254;DHT22;53339;51.378;0.094;2022-07-23T09:00:22;21.70;53.80
26254;DHT22;53339;51.378;0.094;2022-07-23T09:02:50;21.70;52.90
26254;DHT22;53339;51.378;0.094;2022-07-23T09:05:19;21.80;53.40
26254;DHT22;53339;51.378;0.094;2022-07-23T09:08:06;21.80;52.60
26254;DHT22;53339;51.378;0.094;2022-07-23T09:10:54;21.90;51.40
26254;DHT22;53339;51.378;0.094;2022-07-23T09:16:02;22.00;50.90
26254;DHT22;53339;51.378;0.094;2022-07-23T09:18:35;22.00;51.50
26254;DHT22;53339;51.378;0.094;2022-07-23T09:29:11;22.40;51.40
26254;DHT22;53339;51.378;0.094;2022-07-23T09:31:49;22.60;50.70
26254;DHT22;53339;51.378;0.094;2022-07-23T09:34:23;22.70;50.70
26254;DHT22;53339;51.378;0.094;2022-07-23T09:36:53;22.70;48.80
26254;DHT22;53339;51.378;0.094;2022-07-23T09:39:34;22.70;47.40
26254;DHT22;53339;51.378;0.094;2022-07-23T09:42:17;22.80;47.20
26254;DHT22;53339;51.378;0.094;2022-07-23T09:44:48;22.80;47.60
26254;DHT22;53339;51.378;0.094;2022-07-23T09:47:16;22.70;48.30
26254;DHT22;53339;51.378;0.094;2022-07-23T09:52:46;22.90;47.70
26254;DHT22;53339;51.378;0.094;2022-07-23T09:55:18;23.00;47.40
26254;DHT22;53339;51.378;0.094;2022-07-23T09:57:47;23.20;47.70
26254;DHT22;53339;51.378;0.094;2022-07-23T10:00:18;23.30;46.40
26254;DHT22;53339;51.378;0.094;2022-07-23T10:02:47;23.30;46.10
26254;DHT22;53339;51.378;0.094;2022-07-23T10:05:41;23.40;45.80
26254;DHT22;53339;51.378;0.094;2022-07-23T10:08:31;23.50;45.40
26254;DHT22;53339;51.378;0.094;2022-07-23T10:11:35;23.50;45.90
26254;DHT22;53339;51.378;0.094;2022-07-23T10:14:12;23.70;46.30
26254;DHT22;53339;51.378;0.094;2022-07-23T10:16:54;23.80;44.30
26254;DHT22;53339;51.378;0.094;2022-07-23T10:19:22;23.90;43.50
26254;DHT22;53339;51.378;0.094;2022-07-23T10:21:54;23.90;43.40
26254;DHT22;53339;51.378;0.094;2022-07-23T10:30:59;23.90;41.70
26254;DHT22;53339;51.378;0.094;2022-07-23T10:38:53;24.30;42.70
26254;DHT22;53339;51.378;0.094;2022-07-23T10:41:38;24.50;41.50
26254;DHT22;53339;51.378;0.094;2022-07-23T10:44:10;24.60;41.20
26254;DHT22;53339;51.378;0.094;2022-07-23T10:46:57;24.70;39.40
26254;DHT22;53339;51.378;0.094;2022-07-23T10:49:44;24.70;39.70
26254;DHT22;53339;51.378;0.094;2022-07-23T10:57:16;24.80;39.90
26254;DHT22;53339;51.378;0.094;2022-07-23T11:02:35;24.90;39.90
26254;DHT22;53339;51.378;0.094;2022-07-23T11:05:07;25.00;38.60
26254;DHT22;53339;51.378;0.094;2022-07-23T11:07:36;25.00;39.10
26254;DHT22;53339;51.378;0.094;2022-07-23T11:10:04;25.10;39.20
26254;DHT22;53339;51.378;0.094;2022-07-23T11:12:32;25.20;38.80
26254;DHT22;53339;51.378;0.094;2022-07-23T11:15:12;25.30;39.20
26254;DHT22;53339;51.378;0.094;2022-07-23T11:20:15;25.40;37.60
26254;DHT22;53339;51.378;0.094;2022-07-23T11:27:50;25.70;37.90
26254;DHT22;53339;51.378;0.094;2022-07-23T11:33:18;25.90;37.10
26254;DHT22;53339;51.378;0.094;2022-07-23T11:35:59;26.00;36.50
26254;DHT22;53339;51.378;0.094;2022-07-23T11:38:27;25.90;36.40
26254;DHT22;53339;51.378;0.094;2022-07-23T11:40:57;25.70;37.10
26254;DHT22;53339;51.378;0.094;2022-07-23T11:43:25;25.70;38.00
26254;DHT22;53339;51.378;0.094;2022-07-23T11:45:57;26.00;37.40
26254;DHT22;53339;51.378;0.094;2022-07-23T11:48:28;26.20;36.40
26254;DHT22;53339;51.378;0.094;2022-07-23T11:50:57;26.20;35.80
26254;DHT22;53339;51.378;0.094;2022-07-23T11:53:33;26.30;36.30
26254;DHT22;53339;51.378;0.094;2022-07-23T11:56:10;26.30;36.10
26254;DHT22;53339;51.378;0.094;2022-07-23T11:58:38;26.40;35.80
26254;DHT22;53339;51.378;0.094;2022-07-23T12:01:06;26.50;35.70
26254;DHT22;53339;51.378;0.094;2022-07-23T12:03:50;26.60;35.60
26254;DHT22;53339;51.378;0.094;2022-07-23T12:06:18;26.70;34.20
26254;DHT22;53339;51.378;0.094;2022-07-23T12:08:46;26.70;34.60
26254;DHT22;53339;51.378;0.094;2022-07-23T12:11:13;26.70;34.40
26254;DHT22;53339;51.378;0.094;2022-07-23T12:13:41;26.80;35.00
26254;DHT22;53339;51.378;0.094;2022-07-23T12:16:08;27.00;34.80
26254;DHT22;53339;51.378;0.094;2022-07-23T12:18:36;27.10;34.40
26254;DHT22;53339;51.378;0.094;2022-07-23T12:21:04;27.00;34.90
26254;DHT22;53339;51.378;0.094;2022-07-23T12:23:34;27.10;35.20
26254;DHT22;53339;51.378;0.094;2022-07-23T12:26:02;27.40;35.00
26254;DHT22;53339;51.378;0.094;2022-07-23T12:28:32;27.40;33.40
26254;DHT22;53339;51.378;0.094;2022-07-23T12:31:00;27.20;33.60
26254;DHT22;53339;51.378;0.094;2022-07-23T12:33:38;27.10;34.10
26254;DHT22;53339;51.378;0.094;2022-07-23T12:36:08;27.20;34.30
26254;DHT22;53339;51.378;0.094;2022-07-23T12:38:41;27.60;33.80
26254;DHT22;53339;51.378;0.094;2022-07-23T12:41:09;28.00;34.30
26254;DHT22;53339;51.378;0.094;2022-07-23T12:43:39;28.70;33.10
26254;DHT22;53339;51.378;0.094;2022-07-23T12:46:15;29.20;32.20
26254;DHT22;53339;51.378;0.094;2022-07-23T12:48:52;29.80;30.20
26254;DHT22;53339;51.378;0.094;2022-07-23T12:51:27;30.30;30.40
26254;DHT22;53339;51.378;0.094;2022-07-23T12:53:58;30.70;30.10
26254;DHT22;53339;51.378;0.094;2022-07-23T12:56:32;31.10;29.90
26254;DHT22;53339;51.378;0.094;2022-07-23T13:01:34;31.40;27.70
26254;DHT22;53339;51.378;0.094;2022-07-23T13:06:55;31.40;28.00
26254;DHT22;53339;51.378;0.094;2022-07-23T13:09:27;31.40;27.40
26254;DHT22;53339;51.378;0.094;2022-07-23T13:12:00;31.40;28.10
26254;DHT22;53339;51.378;0.094;2022-07-23T13:14:28;31.70;28.20
26254;DHT22;53339;51.378;0.094;2022-07-23T13:16:56;32.20;27.70
26254;DHT22;53339;51.378;0.094;2022-07-23T13:19:26;32.60;26.70
26254;DHT22;53339;51.378;0.094;2022-07-23T13:21:54;32.70;26.50
26254;DHT22;53339;51.378;0.094;2022-07-23T13:24:22;33.10;26.20
26254;DHT22;53339;51.378;0.094;2022-07-23T13:26:49;33.20;26.60
26254;DHT22;53339;51.378;0.094;2022-07-23T13:29:19;33.60;26.70
26254;DHT22;53339;51.378;0.094;2022-07-23T13:31:46;33.90;25.30
26254;DHT22;53339;51.378;0.094;2022-07-23T13:34:15;34.10;24.80
26254;DHT22;53339;51.378;0.094;2022-07-23T13:36:43;33.90;24.50
26254;DHT22;53339;51.378;0.094;2022-07-23T13:39:11;33.80;25.00
26254;DHT22;53339;51.378;0.094;2022-07-23T13:41:38;33.90;25.10
26254;DHT22;53339;51.378;0.094;2022-07-23T13:44:06;34.20;25.40
26254;DHT22;53339;51.378;0.094;2022-07-23T13:46:34;34.60;25.60
26254;DHT22;53339;51.378;0.094;2022-07-23T13:49:02;35.30;25.20
26254;DHT22;53339;51.378;0.094;2022-07-23T13:51:31;35.60;22.40
26254;DHT22;53339;51.378;0.094;2022-07-23T13:53:58;35.10;22.90
26254;DHT22;53339;51.378;0.094;2022-07-23T13:56:26;34.70;23.80
26254;DHT22;53339;51.378;0.094;2022-07-23T13:58:54;34.60;24.30
26254;DHT22;53339;51.378;0.094;2022-07-23T14:01:22;34.70;24.90
26254;DHT22;53339;51.378;0.094;2022-07-23T14:03:49;35.30;23.50
26254;DHT22;53339;51.378;0.094;2022-07-23T14:06:17;35.60;23.40
26254;DHT22;53339;51.378;0.094;2022-07-23T14:08:45;35.60;23.20
26254;DHT22;53339;51.378;0.094;2022-07-23T14:11:14;35.30;23.60
26254;DHT22;53339;51.378;0.094;2022-07-23T14:13:41;35.20;23.80
26254;DHT22;53339;51.378;0.094;2022-07-23T14:16:09;35.30;23.70
26254;DHT22;53339;51.378;0.094;2022-07-23T14:18:37;34.90;23.40
26254;DHT22;53339;51.378;0.094;2022-07-23T14:21:04;34.30;24.50
26254;DHT22;53339;51.378;0.094;2022-07-23T14:23:33;34.20;25.00
26254;DHT22;53339;51.378;0.094;2022-07-23T14:26:01;34.10;25.30
26254;DHT22;53339;51.378;0.094;2022-07-23T14:28:28;34.00;24.90
26254;DHT22;53339;51.378;0.094;2022-07-23T14:30:56;33.60;25.90
26254;DHT22;53339;51.378;0.094;2022-07-23T14:33:23;33.30;26.10
26254;DHT22;53339;51.378;0.094;2022-07-23T14:35:52;33.10;26.40
26254;DHT22;53339;51.378;0.094;2022-07-23T14:38:20;32.90;27.00
26254;DHT22;53339;51.378;0.094;2022-07-23T14:40:48;33.20;27.10
26254;DHT22;53339;51.378;0.094;2022-07-23T14:43:15;33.50;26.60
26254;DHT22;53339;51.378;0.094;2022-07-23T14:45:43;33.30;26.80
26254;DHT22;53339;51.378;0.094;2022-07-23T14:48:11;32.30;27.50
26254;DHT22;53339;51.378;0.094;2022-07-23T14:50:39;31.20;29.00
26254;DHT22;53339;51.378;0.094;2022-07-23T14:53:08;30.50;30.40
26254;DHT22;53339;51.378;0.094;2022-07-23T14:55:35;29.80;31.40
26254;DHT22;53339;51.378;0.094;2022-07-23T14:58:03;29.40;32.40
26254;DHT22;53339;51.378;0.094;2022-07-23T15:00:31;29.00;33.30
26254;DHT22;53339;51.378;0.094;2022-07-23T15:02:58;28.90;33.60
26254;DHT22;53339;51.378;0.094;2022-07-23T15:05:26;29.10;33.40
26254;DHT22;53339;51.378;0.094;2022-07-23T15:07:55;29.40;33.00
26254;DHT22;53339;51.378;0.094;2022-07-23T15:10:23;29.50;32.90
26254;DHT22;53339;51.378;0.094;2022-07-23T15:12:51;29.70;32.80
26254;DHT22;53339;51.378;0.094;2022-07-23T15:15:18;29.70;32.80
26254;DHT22;53339;51.378;0.094;2022-07-23T15:17:46;29.40;33.20
26254;DHT22;53339;51.378;0.094;2022-07-23T15:20:14;29.10;34.00
26254;DHT22;53339;51.378;0.094;2022-07-23T15:22:45;29.00;34.50
26254;DHT22;53339;51.378;0.094;2022-07-23T15:25:15;29.30;34.50
26254;DHT22;53339;51.378;0.094;2022-07-23T15:27:42;29.50;34.10
26254;DHT22;53339;51.378;0.094;2022-07-23T15:30:10;29.60;34.30
26254;DHT22;53339;51.378;0.094;2022-07-23T15:32:38;29.40;34.50
26254;DHT22;53339;51.378;0.094;2022-07-23T15:35:06;29.10;35.20
26254;DHT22;53339;51.378;0.094;2022-07-23T15:37:35;28.80;35.50
26254;DHT22;53339;51.378;0.094;2022-07-23T15:40:03;28.60;36.10
26254;DHT22;53339;51.378;0.094;2022-07-23T15:42:33;28.40;36.60
26254;DHT22;53339;51.378;0.094;2022-07-23T15:45:01;28.50;36.50
26254;DHT22;53339;51.378;0.094;2022-07-23T15:47:29;28.60;36.60
26254;DHT22;53339;51.378;0.094;2022-07-23T15:49:57;29.00;36.20
26254;DHT22;53339;51.378;0.094;2022-07-23T15:52:24;29.10;36.20
26254;DHT22;53339;51.378;0.094;2022-07-23T15:54:52;28.70;36.40
26254;DHT22;53339;51.378;0.094;2022-07-23T15:57:20;28.90;36.80
26254;DHT22;53339;51.378;0.094;2022-07-23T15:59:48;29.40;36.40
26254;DHT22;53339;51.378;0.094;2022-07-23T16:02:15;30.20;35.60
26254;DHT22;53339;51.378;0.094;2022-07-23T16:04:44;30.90;34.10
26254;DHT22;53339;51.378;0.094;2022-07-23T16:07:11;31.40;33.60
26254;DHT22;53339;51.378;0.094;2022-07-23T16:09:41;32.00;32.80
26254;DHT22;53339;51.378;0.094;2022-07-23T16:12:09;32.10;32.00
26254;DHT22;53339;51.378;0.094;2022-07-23T16:14:38;31.70;32.20
26254;DHT22;53339;51.378;0.094;2022-07-23T16:17:05;31.30;32.80
26254;DHT22;53339;51.378;0.094;2022-07-23T16:19:34;30.50;33.80
26254;DHT22;53339;51.378;0.094;2022-07-23T16:22:02;30.20;34.60
26254;DHT22;53339;51.378;0.094;2022-07-23T16:24:29;30.40;34.30
26254;DHT22;53339;51.378;0.094;2022-07-23T16:26:57;30.40;34.60
26254;DHT22;53339;51.378;0.094;2022-07-23T16:29:29;30.30;34.60
26254;DHT22;53339;51.378;0.094;2022-07-23T16:31:56;30.30;34.70
26254;DHT22;53339;51.378;0.094;2022-07-23T16:34:24;30.40;34.90
26254;DHT22;53339;51.378;0.094;2022-07-23T16:36:52;30.60;34.60
26254;DHT22;53339;51.378;0.094;2022-07-23T16:39:19;30.50;34.60